Time;durP1;ratioP1;P1;durP2;ratioP2;P2;SDS_P1;SDS_P2;PMS_P1;PMS_P2;Temp;Humidity;BMP_temperature;BMP_pressure;BME280_temperature;BME280_humidity;BME280_pressure;Samples;Min_cycle;Max_cycle;Signal;HPM_P1;HPM_P2
2022/06/08 00:01:41;;;;;;;2.88;2.15;;;17.60;90.70;;;;;;5052052;28;20097;-80
2022/06/08 00:04:11;;;;;;;2.78;2.00;;;17.60;90.80;;;;;;5030863;28;20031;-80
2022/06/08 00:06:36;;;;;;;3.03;2.13;;;17.60;90.80;;;;;;5046010;28;20029;-80
2022/06/08 00:09:02;;;;;;;2.92;2.20;;;17.60;90.80;;;;;;5062342;28;20575;-80
2022/06/08 00:11:28;;;;;;;3.70;2.10;;;17.60;90.90;;;;;;5053461;28;20400;-80
2022/06/08 00:13:54;;;;;;;2.47;1.95;;;17.60;90.90;;;;;;5027484;28;21706;-80
2022/06/08 00:16:19;;;;;;;3.00;1.90;;;17.60;90.80;;;;;;5060418;28;20024;-80
2022/06/08 00:18:46;;;;;;;2.70;1.90;;;17.60;90.90;;;;;;5041692;28;20047;-80
2022/06/08 00:21:14;;;;;;;3.70;1.90;;;17.60;90.80;;;;;;5062539;28;20471;-80
2022/06/08 00:23:41;;;;;;;3.65;2.00;;;17.60;90.80;;;;;;5054040;28;20329;-80
2022/06/08 00:26:06;;;;;;;3.45;1.73;;;17.60;90.80;;;;;;5046207;28;20412;-80
2022/06/08 00:28:32;;;;;;;2.70;1.60;;;17.60;90.70;;;;;;5046636;28;20043;-80
2022/06/08 00:30:58;;;;;;;1.95;1.60;;;17.50;90.70;;;;;;5043562;28;20521;-80
2022/06/08 00:33:24;;;;;;;2.47;1.80;;;17.50;90.70;;;;;;5027818;28;20071;-80
2022/06/08 00:35:50;;;;;;;2.53;1.70;;;17.50;90.60;;;;;;5044396;28;20131;-80
2022/06/08 00:38:16;;;;;;;2.70;1.70;;;17.50;90.60;;;;;;5048513;28;20087;-80
2022/06/08 00:40:56;;;;;;;2.63;1.60;;;17.50;90.60;;;;;;5052281;28;20274;-80
2022/06/08 00:43:23;;;;;;;2.75;1.90;;;17.50;90.40;;;;;;5042234;28;20033;-80
2022/06/08 00:45:49;;;;;;;2.20;1.67;;;17.40;90.60;;;;;;5040867;28;20045;-80
2022/06/08 00:48:17;;;;;;;2.23;1.60;;;17.40;90.80;;;;;;5021749;28;20339;-80
2022/06/08 00:50:47;;;;;;;2.20;1.30;;;17.40;90.40;;;;;;5063430;28;20319;-80
2022/06/08 00:53:16;;;;;;;2.10;1.58;;;17.30;90.30;;;;;;5042272;28;20266;-80
2022/06/08 00:55:44;;;;;;;3.25;1.70;;;17.30;90.30;;;;;;5066474;28;20036;-80
2022/06/08 00:58:23;;;;;;;2.22;1.60;;;17.20;90.20;;;;;;5043897;28;21552;-80
2022/06/08 01:00:50;;;;;;;2.35;1.40;;;17.20;90.10;;;;;;5049613;28;20032;-78
2022/06/08 01:03:16;;;;;;;1.77;1.33;;;17.20;90.20;;;;;;5029711;28;20295;-77
2022/06/08 01:06:00;;;;;;;2.83;1.55;;;17.10;90.20;;;;;;5037525;28;20045;-78
2022/06/08 01:08:38;;;;;;;2.53;1.40;;;17.10;90.10;;;;;;5054118;28;20718;-78
2022/06/08 01:11:07;;;;;;;3.70;1.50;;;17.00;90.20;;;;;;5049174;28;20093;-78
2022/06/08 01:13:35;;;;;;;3.00;1.42;;;17.00;90.20;;;;;;5048233;28;20279;-78
2022/06/08 01:16:10;;;;;;;2.13;1.63;;;17.00;90.20;;;;;;5051590;28;20067;-78
2022/06/08 01:18:36;;;;;;;2.50;1.30;;;16.90;90.20;;;;;;5023063;28;20068;-78
2022/06/08 01:21:21;;;;;;;2.35;1.40;;;16.80;90.20;;;;;;5059006;28;20128;-78
2022/06/08 01:24:09;;;;;;;2.17;1.42;;;16.90;90.10;;;;;;5045937;28;20029;-78
2022/06/08 01:26:50;;;;;;;2.30;1.27;;;16.80;90.20;;;;;;5052586;28;20024;-78
2022/06/08 01:29:41;;;;;;;2.13;1.40;;;16.70;90.50;;;;;;5047082;28;20591;-78
2022/06/08 01:32:34;;;;;;;1.80;1.40;;;16.70;90.70;;;;;;5039460;28;20086;-78
2022/06/08 01:35:07;;;;;;;1.98;1.50;;;16.70;90.70;;;;;;5021518;28;20068;-78
2022/06/08 01:37:44;;;;;;;2.67;1.50;;;16.70;91.00;;;;;;5063276;28;20079;-78
2022/06/08 01:40:30;;;;;;;3.65;1.30;;;16.80;91.20;;;;;;5050761;28;20221;-78
2022/06/08 01:43:14;;;;;;;1.97;1.40;;;16.70;91.10;;;;;;5054039;28;20036;-78
2022/06/08 01:45:51;;;;;;;2.90;1.50;;;16.70;91.10;;;;;;5045185;28;20508;-78
2022/06/08 01:48:51;;;;;;;2.70;1.50;;;16.80;91.20;;;;;;5041304;28;20500;-78
2022/06/08 01:51:23;;;;;;;3.60;1.50;;;16.80;91.00;;;;;;5042262;28;20678;-78
2022/06/08 01:54:11;;;;;;;3.00;1.40;;;16.80;91.10;;;;;;5046681;28;20044;-78
2022/06/08 01:56:48;;;;;;;1.97;1.40;;;16.80;90.90;;;;;;5039923;28;20055;-78
2022/06/08 01:59:24;;;;;;;2.70;1.60;;;16.80;91.10;;;;;;5038640;28;20257;-78
2022/06/08 02:02:23;;;;;;;3.10;1.55;;;16.80;91.10;;;;;;5038536;28;20032;-78
2022/06/08 02:05:28;;;;;;;2.40;1.52;;;16.80;91.00;;;;;;5024466;28;20036;-78
2022/06/08 02:08:03;;;;;;;2.53;1.50;;;16.80;90.90;;;;;;5048550;28;20045;-78
2022/06/08 02:10:56;;;;;;;2.43;1.53;;;16.70;91.10;;;;;;5066645;28;20036;-78
2022/06/08 02:13:26;;;;;;;1.92;1.35;;;16.70;91.00;;;;;;5049552;28;20036;-78
2022/06/08 02:15:58;;;;;;;3.22;1.75;;;16.60;91.10;;;;;;5052284;28;20059;-78
2022/06/08 02:18:48;;;;;;;2.40;1.50;;;16.70;91.10;;;;;;5038977;28;20256;-78
2022/06/08 02:21:23;;;;;;;2.42;1.40;;;16.60;91.00;;;;;;5018228;28;20222;-78
2022/06/08 02:23:54;;;;;;;3.10;1.47;;;16.70;91.20;;;;;;5058247;28;20029;-78
2022/06/08 02:26:26;;;;;;;3.53;1.70;;;16.60;91.20;;;;;;5042259;28;20249;-78
2022/06/08 02:29:18;;;;;;;2.70;1.50;;;16.60;91.20;;;;;;5054256;28;20027;-78
2022/06/08 02:34:27;;;;;;;2.80;1.70;;;16.60;91.20;;;;;;5059389;28;20072;-78
2022/06/08 02:34:53;;;;;;;3.65;1.55;;;16.60;91.20;;;;;;5053602;28;20541;-78
2022/06/08 02:37:30;;;;;;;2.90;1.57;;;16.60;91.20;;;;;;5040865;28;20308;-78
2022/06/08 02:40:02;;;;;;;2.42;1.52;;;16.60;91.20;;;;;;5067833;28;20097;-78
2022/06/08 02:42:32;;;;;;;3.83;1.70;;;16.60;91.20;;;;;;5052395;28;20024;-78
2022/06/08 02:45:07;;;;;;;2.40;1.60;;;16.60;91.20;;;;;;5055636;28;20025;-78
2022/06/08 02:47:35;;;;;;;4.95;1.52;;;16.50;91.20;;;;;;5043166;28;20032;-78
2022/06/08 02:50:11;;;;;;;3.90;1.80;;;16.50;91.30;;;;;;5029413;28;20056;-78
2022/06/08 02:52:40;;;;;;;3.15;1.70;;;16.50;91.30;;;;;;5053148;28;20036;-77
2022/06/08 02:55:39;;;;;;;3.15;1.58;;;16.50;91.50;;;;;;5041519;28;20040;-77
2022/06/08 02:58:05;;;;;;;2.80;1.60;;;16.50;91.50;;;;;;5044941;28;20039;-78
2022/06/08 03:00:36;;;;;;;2.17;1.60;;;16.50;91.60;;;;;;5054030;28;20020;-78
2022/06/08 03:03:08;;;;;;;2.30;1.50;;;16.50;91.70;;;;;;5051044;28;20032;-77
2022/06/08 03:05:41;;;;;;;4.43;1.77;;;16.50;91.70;;;;;;5036568;28;20107;-78
2022/06/08 03:08:14;;;;;;;3.35;1.60;;;16.50;91.70;;;;;;5056251;28;20124;-77
2022/06/08 03:10:41;;;;;;;3.83;1.60;;;16.50;91.80;;;;;;5041014;28;20142;-77
2022/06/08 03:13:29;;;;;;;3.95;1.60;;;16.50;91.80;;;;;;5052531;28;20110;-78
2022/06/08 03:16:00;;;;;;;4.38;1.70;;;16.50;91.90;;;;;;5040514;28;20484;-77
2022/06/08 03:18:27;;;;;;;2.58;1.42;;;16.50;92.00;;;;;;5054710;28;20048;-77
2022/06/08 03:20:54;;;;;;;2.35;1.65;;;16.50;92.10;;;;;;5036877;28;20030;-78
2022/06/08 03:23:20;;;;;;;2.73;1.63;;;16.50;92.20;;;;;;5037816;28;20090;-77
2022/06/08 03:25:47;;;;;;;2.72;1.65;;;16.60;92.30;;;;;;5057163;28;20037;-78
2022/06/08 03:28:14;;;;;;;3.55;1.83;;;16.60;92.30;;;;;;5036102;28;20059;-77
2022/06/08 03:30:41;;;;;;;2.23;1.50;;;16.60;92.30;;;;;;5066076;28;20516;-78
2022/06/08 03:33:08;;;;;;;3.65;1.70;;;16.60;92.40;;;;;;5039149;28;20071;-77
2022/06/08 03:35:35;;;;;;;8.52;2.10;;;16.60;92.40;;;;;;5044197;28;20029;-77
2022/06/08 03:38:00;;;;;;;2.25;1.60;;;16.70;92.50;;;;;;5028937;28;20051;-78
2022/06/08 03:40:27;;;;;;;2.73;1.67;;;16.70;92.50;;;;;;5051836;28;20259;-78
2022/06/08 03:42:53;;;;;;;2.75;1.70;;;16.70;92.50;;;;;;5054449;28;20032;-78
2022/06/08 03:45:19;;;;;;;3.05;1.85;;;16.70;92.40;;;;;;5045504;28;20170;-77
2022/06/08 03:47:48;;;;;;;3.23;1.80;;;16.80;92.40;;;;;;5059357;28;20072;-77
2022/06/08 03:50:18;;;;;;;2.17;1.50;;;16.80;92.40;;;;;;5040647;28;20217;-77
2022/06/08 03:53:02;;;;;;;2.38;1.67;;;16.80;92.40;;;;;;5032208;28;20078;-78
2022/06/08 03:55:29;;;;;;;2.65;1.50;;;16.80;92.30;;;;;;5045547;28;20029;-77
2022/06/08 03:57:55;;;;;;;3.20;1.60;;;16.80;92.40;;;;;;5064595;28;20028;-78
2022/06/08 04:00:24;;;;;;;4.07;1.47;;;16.80;92.50;;;;;;5044656;28;20037;-77
2022/06/08 04:02:50;;;;;;;2.70;1.40;;;16.90;92.50;;;;;;5056054;28;20064;-78
2022/06/08 04:05:16;;;;;;;1.50;1.30;;;16.90;92.50;;;;;;5052061;28;20691;-77
2022/06/08 04:07:42;;;;;;;2.70;1.42;;;16.90;92.50;;;;;;5029203;28;20048;-78
2022/06/08 04:10:09;;;;;;;2.00;1.47;;;16.90;92.50;;;;;;5048750;28;20040;-77
2022/06/08 04:12:35;;;;;;;1.80;1.20;;;17.00;92.50;;;;;;5050198;28;20029;-77
2022/06/08 04:15:01;;;;;;;2.28;1.33;;;16.90;92.50;;;;;;5053614;28;20484;-77
2022/06/08 04:17:27;;;;;;;3.45;1.40;;;17.00;92.40;;;;;;5056593;28;20040;-77
2022/06/08 04:19:53;;;;;;;2.50;1.20;;;17.00;92.40;;;;;;5050807;28;20032;-77
2022/06/08 04:22:21;;;;;;;1.80;1.30;;;17.00;92.50;;;;;;5023546;28;20037;-77
2022/06/08 04:24:47;;;;;;;2.25;1.50;;;17.00;92.50;;;;;;5054474;28;20054;-77
2022/06/08 04:27:13;;;;;;;3.38;1.30;;;17.00;92.50;;;;;;5052838;28;20040;-78
2022/06/08 04:29:39;;;;;;;2.45;1.35;;;17.00;92.60;;;;;;5047810;28;20028;-77
2022/06/08 04:32:09;;;;;;;3.33;1.30;;;17.00;92.60;;;;;;5034616;28;20545;-77
2022/06/08 04:34:39;;;;;;;2.97;1.35;;;17.00;92.60;;;;;;5055424;28;20085;-77
2022/06/08 04:37:05;;;;;;;2.33;1.40;;;17.00;92.70;;;;;;5032875;28;20966;-78
2022/06/08 04:39:30;;;;;;;2.55;1.10;;;17.10;92.80;;;;;;5024339;28;20046;-77
2022/06/08 04:41:57;;;;;;;3.53;1.30;;;17.10;92.80;;;;;;5045196;28;20530;-77
2022/06/08 04:44:23;;;;;;;2.38;1.30;;;17.10;92.80;;;;;;5043602;28;20076;-77
2022/06/08 04:46:48;;;;;;;2.00;1.27;;;17.20;92.80;;;;;;5066758;28;20078;-77
2022/06/08 04:49:15;;;;;;;1.88;1.33;;;17.20;92.80;;;;;;5046136;28;20032;-77
2022/06/08 04:51:41;;;;;;;1.70;1.20;;;17.20;92.80;;;;;;5052634;28;20467;-77
2022/06/08 04:54:06;;;;;;;2.93;1.30;;;17.20;92.80;;;;;;5026094;28;21092;-77
2022/06/08 04:56:32;;;;;;;3.40;1.30;;;17.30;92.90;;;;;;5058557;28;20017;-77
2022/06/08 04:58:58;;;;;;;2.25;1.30;;;17.30;92.90;;;;;;5032047;28;20087;-77
2022/06/08 05:01:25;;;;;;;2.55;1.10;;;17.30;93.00;;;;;;5043363;28;20453;-77
2022/06/08 05:03:51;;;;;;;2.13;1.45;;;17.30;93.00;;;;;;5041145;28;20488;-77
2022/06/08 05:06:16;;;;;;;1.97;1.10;;;17.40;93.00;;;;;;5027391;28;20192;-77
2022/06/08 05:08:42;;;;;;;1.77;1.27;;;17.40;93.00;;;;;;5052144;28;20489;-77
2022/06/08 05:11:08;;;;;;;1.67;1.30;;;17.50;93.10;;;;;;5020674;28;20497;-78
2022/06/08 05:13:36;;;;;;;2.63;1.30;;;17.50;93.00;;;;;;5041063;28;20727;-78
2022/06/08 05:16:02;;;;;;;1.50;1.00;;;17.50;93.00;;;;;;5043541;28;20388;-78
2022/06/08 05:18:28;;;;;;;2.00;1.20;;;17.60;93.00;;;;;;5007594;28;1221267;-78
2022/06/08 05:20:54;;;;;;;1.90;1.20;;;17.60;93.00;;;;;;5033336;28;20032;-77
2022/06/08 05:23:23;;;;;;;2.35;1.17;;;17.60;93.10;;;;;;5039725;28;20402;-77
2022/06/08 05:25:49;;;;;;;2.20;1.05;;;17.70;93.00;;;;;;5031442;28;20445;-78
2022/06/08 05:28:15;;;;;;;2.83;1.10;;;17.70;93.10;;;;;;5037674;28;20040;-77
2022/06/08 05:30:43;;;;;;;2.37;1.10;;;17.70;93.10;;;;;;5039965;28;20047;-78
2022/06/08 05:33:10;;;;;;;2.05;1.10;;;17.80;93.10;;;;;;5046723;28;20042;-77
2022/06/08 05:35:37;;;;;;;1.85;1.08;;;17.80;93.50;;;;;;5034190;28;20040;-77
2022/06/08 05:38:03;;;;;;;2.10;1.10;;;17.90;93.20;;;;;;5030722;28;20044;-77
2022/06/08 05:40:32;;;;;;;3.40;1.20;;;17.90;93.20;;;;;;5051432;28;20029;-77
2022/06/08 05:42:59;;;;;;;2.20;1.17;;;18.00;93.20;;;;;;5014771;28;20701;-77
2022/06/08 05:45:27;;;;;;;2.40;1.30;;;18.00;93.20;;;;;;5044240;28;20016;-77
2022/06/08 05:47:53;;;;;;;2.05;1.20;;;18.00;93.20;;;;;;5033655;28;20126;-77
2022/06/08 05:50:20;;;;;;;3.08;1.27;;;18.10;93.30;;;;;;5051384;28;20060;-77
2022/06/08 05:52:46;;;;;;;2.73;1.23;;;18.10;93.30;;;;;;5022651;28;20043;-77
2022/06/08 05:55:13;;;;;;;2.55;1.40;;;18.20;93.30;;;;;;5046239;28;20028;-77
2022/06/08 05:57:40;;;;;;;3.33;1.23;;;18.30;93.40;;;;;;5025440;28;20070;-77
2022/06/08 06:00:09;;;;;;;2.72;1.27;;;18.30;93.50;;;;;;5039769;28;20128;-77
2022/06/08 06:02:35;;;;;;;1.98;1.15;;;18.40;93.40;;;;;;5058119;28;20024;-77
2022/06/08 06:05:00;;;;;;;3.03;1.27;;;18.50;93.60;;;;;;5052196;28;20313;-78
2022/06/08 06:07:26;;;;;;;3.97;1.20;;;18.50;93.60;;;;;;5031533;28;20037;-77
2022/06/08 06:09:51;;;;;;;2.42;1.30;;;18.60;93.60;;;;;;5031459;28;20037;-78
2022/06/08 06:12:17;;;;;;;2.67;1.50;;;18.70;93.60;;;;;;5038085;28;20044;-77
2022/06/08 06:14:46;;;;;;;1.98;1.27;;;18.70;93.50;;;;;;5027207;28;20045;-77
2022/06/08 06:17:12;;;;;;;2.25;1.02;;;18.80;93.40;;;;;;5046595;28;20087;-78
2022/06/08 06:19:38;;;;;;;3.05;1.25;;;18.90;93.40;;;;;;5034589;28;20063;-78
2022/06/08 06:22:04;;;;;;;2.00;1.30;;;18.90;93.30;;;;;;5049601;28;20064;-77
2022/06/08 06:24:31;;;;;;;2.78;1.40;;;19.00;93.30;;;;;;5029092;28;20036;-78
2022/06/08 06:26:57;;;;;;;2.90;1.33;;;19.00;93.20;;;;;;5043454;28;20033;-77
2022/06/08 06:29:23;;;;;;;1.40;1.20;;;19.00;93.20;;;;;;5022076;28;20405;-77
2022/06/08 06:31:56;;;;;;;1.80;1.13;;;19.10;93.10;;;;;;5034256;28;20055;-78
2022/06/08 06:34:24;;;;;;;2.38;1.30;;;19.10;92.90;;;;;;5042902;28;20033;-77
2022/06/08 06:36:52;;;;;;;1.92;1.23;;;19.10;93.20;;;;;;5045563;28;20123;-78
2022/06/08 06:39:17;;;;;;;2.70;1.40;;;19.20;93.20;;;;;;5035481;28;20484;-78
2022/06/08 06:41:44;;;;;;;2.00;1.23;;;19.20;93.20;;;;;;5053066;28;20226;-78
2022/06/08 06:44:10;;;;;;;2.67;1.35;;;19.20;93.10;;;;;;5024161;28;21290;-77
2022/06/08 06:46:36;;;;;;;3.17;1.30;;;19.30;93.20;;;;;;5032440;28;20021;-78
2022/06/08 06:49:01;;;;;;;2.63;1.20;;;19.30;93.10;;;;;;5038043;28;20029;-78
2022/06/08 06:51:27;;;;;;;2.53;1.15;;;19.40;93.10;;;;;;5046832;28;20041;-78
2022/06/08 06:53:53;;;;;;;4.60;1.37;;;19.40;93.10;;;;;;5037049;28;20313;-78
2022/06/08 06:56:19;;;;;;;3.33;1.37;;;19.40;93.00;;;;;;5031471;28;20047;-78
2022/06/08 06:58:48;;;;;;;3.73;1.30;;;19.50;93.00;;;;;;5024248;28;20449;-78
2022/06/08 07:01:15;;;;;;;2.15;1.27;;;19.50;92.80;;;;;;5043529;28;20031;-77
2022/06/08 07:03:42;;;;;;;3.75;1.20;;;19.50;92.60;;;;;;5044238;28;20036;-78
2022/06/08 07:06:07;;;;;;;1.98;1.15;;;19.50;92.60;;;;;;5039371;28;20083;-77
2022/06/08 07:08:33;;;;;;;2.50;1.20;;;19.40;92.50;;;;;;5038411;28;20040;-77
2022/06/08 07:13:43;;;;;;;2.10;1.30;;;19.40;92.40;;;;;;5018180;28;20696;-77
2022/06/08 07:16:08;;;;;;;3.42;1.35;;;19.40;92.40;;;;;;5034043;28;20233;-78
2022/06/08 07:18:34;;;;;;;2.97;1.50;;;19.40;92.30;;;;;;5043131;28;20507;-78
2022/06/08 07:21:00;;;;;;;2.33;1.23;;;19.30;92.30;;;;;;5032534;28;20041;-77
2022/06/08 07:23:26;;;;;;;2.85;1.40;;;19.30;92.30;;;;;;5037998;28;20447;-78
2022/06/08 07:25:52;;;;;;;2.97;1.43;;;19.30;92.30;;;;;;5031250;28;20040;-78
2022/06/08 07:28:17;;;;;;;3.70;1.48;;;19.20;92.30;;;;;;5043890;28;20834;-78
2022/06/08 07:30:43;;;;;;;3.80;1.40;;;19.20;92.30;;;;;;5024627;28;20032;-78
2022/06/08 07:33:09;;;;;;;3.33;1.40;;;19.20;92.20;;;;;;5063247;28;20028;-78
2022/06/08 07:35:34;;;;;;;2.45;1.30;;;19.10;92.30;;;;;;5045232;28;20526;-78
2022/06/08 07:38:00;;;;;;;3.13;1.20;;;19.10;92.30;;;;;;5031684;28;20033;-78
2022/06/08 07:40:26;;;;;;;2.97;1.48;;;19.10;92.40;;;;;;5044996;28;20458;-78
2022/06/08 07:42:52;;;;;;;2.30;1.33;;;19.10;92.50;;;;;;5024898;28;20569;-78
2022/06/08 07:45:17;;;;;;;3.15;1.60;;;19.00;92.50;;;;;;5009261;28;20032;-77
2022/06/08 07:50:28;;;;;;;3.13;1.65;;;19.00;92.60;;;;;;5034842;28;20572;-78
2022/06/08 07:52:55;;;;;;;3.95;1.67;;;19.00;92.60;;;;;;5044880;28;20044;-78
2022/06/08 07:55:21;;;;;;;2.55;1.50;;;19.00;92.50;;;;;;5039867;28;20488;-78
2022/06/08 07:57:47;;;;;;;4.03;1.43;;;19.00;92.60;;;;;;5033999;28;20120;-79
2022/06/08 08:00:16;;;;;;;5.43;1.45;;;19.10;92.50;;;;;;5012441;28;20088;-78
2022/06/08 08:02:42;;;;;;;2.22;1.40;;;19.00;92.30;;;;;;5048481;28;20470;-81
2022/06/08 08:05:09;;;;;;;2.45;1.35;;;19.00;92.30;;;;;;5044301;28;20048;-79
2022/06/08 08:07:36;;;;;;;3.38;1.48;;;18.90;92.20;;;;;;5042047;28;20021;-80
2022/06/08 08:10:04;;;;;;;5.60;2.20;;;18.90;92.40;;;;;;5050171;28;20075;-79
2022/06/08 08:12:30;;;;;;;2.20;1.40;;;18.90;92.50;;;;;;5047913;28;20412;-79
2022/06/08 08:14:56;;;;;;;3.10;1.55;;;18.90;92.40;;;;;;5025266;28;20045;-79
2022/06/08 08:17:21;;;;;;;6.03;1.60;;;18.80;92.50;;;;;;5036917;28;20068;-79
2022/06/08 08:19:47;;;;;;;3.22;1.40;;;18.80;92.60;;;;;;5051604;28;20040;-79
2022/06/08 08:22:15;;;;;;;3.93;1.67;;;18.80;92.70;;;;;;5058545;28;20707;-80
2022/06/08 08:24:40;;;;;;;3.50;1.40;;;18.80;92.80;;;;;;5037472;28;20232;-79
2022/06/08 08:27:06;;;;;;;3.73;1.50;;;18.80;92.80;;;;;;5049443;28;20421;-79
2022/06/08 08:29:32;;;;;;;4.28;1.45;;;18.80;92.80;;;;;;5031998;28;20490;-79
2022/06/08 08:31:58;;;;;;;3.75;1.48;;;18.80;92.90;;;;;;5028021;28;20041;-80
2022/06/08 08:34:24;;;;;;;4.13;1.73;;;18.80;92.90;;;;;;5049828;28;20496;-80
2022/06/08 08:36:50;;;;;;;2.85;1.33;;;18.80;92.90;;;;;;5058926;28;20423;-80
2022/06/08 08:39:15;;;;;;;4.83;1.70;;;18.80;93.00;;;;;;5046333;28;20617;-80
2022/06/08 08:45:03;;;;;;;3.65;1.60;;;18.80;93.10;;;;;;5033095;28;20065;-80
2022/06/08 08:47:34;;;;;;;4.72;1.70;;;18.80;92.90;;;;;;5021347;28;20472;-79
2022/06/08 08:50:15;;;;;;;3.73;1.80;;;18.80;93.00;;;;;;5043007;28;20313;-80
2022/06/08 08:52:49;;;;;;;4.32;1.70;;;18.80;93.10;;;;;;5053141;28;20136;-79
2022/06/08 08:55:28;;;;;;;3.85;1.60;;;18.80;93.10;;;;;;5038007;28;20765;-80
2022/06/08 08:58:11;;;;;;;3.97;1.50;;;18.80;92.80;;;;;;5051752;28;20040;-80
2022/06/08 09:00:49;;;;;;;3.47;1.70;;;18.80;92.80;;;;;;5036245;28;20036;-82
2022/06/08 09:03:23;;;;;;;3.67;1.60;;;18.90;92.80;;;;;;5033820;28;20039;-81
2022/06/08 09:05:51;;;;;;;3.58;1.63;;;18.80;92.70;;;;;;5034592;28;20041;-81
2022/06/08 09:08:19;;;;;;;3.88;1.75;;;18.80;92.90;;;;;;5042788;28;20057;-80
2022/06/08 09:10:45;;;;;;;4.65;1.70;;;18.80;93.00;;;;;;5036701;28;20274;-80
2022/06/08 09:13:24;;;;;;;4.78;1.60;;;18.80;93.00;;;;;;5050799;28;20270;-83
2022/06/08 09:15:51;;;;;;;3.73;1.67;;;18.70;92.90;;;;;;5033551;28;20223;-81
2022/06/08 09:18:39;;;;;;;3.58;1.70;;;18.70;92.90;;;;;;5022796;28;20041;-82
2022/06/08 09:21:31;;;;;;;4.47;1.70;;;18.70;92.60;;;;;;5041299;28;20044;-82
2022/06/08 09:24:07;;;;;;;3.17;1.63;;;18.70;92.70;;;;;;5035022;28;20024;-83
2022/06/08 09:26:36;;;;;;;3.42;1.38;;;18.60;92.90;;;;;;5046420;28;20056;-82
2022/06/08 09:29:08;;;;;;;2.77;1.60;;;18.50;93.00;;;;;;5059230;28;20028;-82
2022/06/08 09:31:35;;;;;;;3.08;1.50;;;18.50;93.20;;;;;;5035807;28;20459;-82
2022/06/08 09:34:10;;;;;;;3.13;1.55;;;18.50;93.30;;;;;;5029968;28;20105;-82
2022/06/08 09:36:36;;;;;;;2.80;1.38;;;18.50;93.40;;;;;;5035537;28;20063;-81
2022/06/08 09:39:02;;;;;;;3.13;1.50;;;18.50;93.50;;;;;;5040464;28;20036;-81
2022/06/08 09:41:34;;;;;;;2.73;1.30;;;18.50;93.50;;;;;;5035693;28;20489;-82
2022/06/08 09:44:16;;;;;;;3.28;1.40;;;18.50;93.30;;;;;;5048684;28;20036;-82
2022/06/08 09:52:42;;;;;;;3.63;1.30;;;18.40;93.00;;;;;;5023217;28;20561;-82
2022/06/08 09:55:34;;;;;;;3.00;1.40;;;18.40;93.00;;;;;;5040595;28;20032;-82
2022/06/08 09:58:38;;;;;;;3.28;1.27;;;18.30;92.70;;;;;;5024423;28;20037;-82
2022/06/08 10:01:18;;;;;;;2.83;1.33;;;18.30;92.70;;;;;;5031704;28;20037;-81
2022/06/08 10:03:47;;;;;;;3.13;1.38;;;18.10;92.80;;;;;;5020432;28;20350;-81
2022/06/08 10:06:29;;;;;;;3.58;1.42;;;18.10;93.10;;;;;;5044647;28;20037;-81
2022/06/08 10:09:15;;;;;;;3.07;1.40;;;18.10;93.30;;;;;;5030070;28;20603;-82
2022/06/08 10:11:49;;;;;;;1.63;1.00;;;18.00;93.40;;;;;;5037136;28;20321;-83
2022/06/08 10:14:55;;;;;;;2.63;1.33;;;18.00;93.30;;;;;;5049856;28;20043;-81
2022/06/08 10:17:30;;;;;;;2.58;1.08;;;17.90;93.10;;;;;;5027667;28;20076;-81
2022/06/08 10:19:56;;;;;;;2.75;1.27;;;17.90;93.40;;;;;;5027188;28;20144;-82
2022/06/08 10:22:27;;;;;;;2.90;1.30;;;17.90;93.50;;;;;;5032920;28;20056;-82
2022/06/08 10:25:00;;;;;;;3.28;1.30;;;17.90;93.50;;;;;;5048871;28;20101;-81
2022/06/08 10:27:39;;;;;;;3.42;1.10;;;17.80;93.40;;;;;;5035418;28;20033;-82
2022/06/08 10:30:14;;;;;;;2.00;1.20;;;17.80;93.30;;;;;;5052317;28;20044;-83
2022/06/08 10:33:00;;;;;;;2.53;1.20;;;17.80;93.20;;;;;;5033367;28;20359;-81
2022/06/08 10:35:35;;;;;;;1.60;1.08;;;17.80;93.10;;;;;;5030607;28;20096;-82
2022/06/08 10:38:03;;;;;;;2.75;1.30;;;17.70;93.30;;;;;;5039727;28;20427;-81
2022/06/08 10:40:44;;;;;;;2.38;1.10;;;17.70;93.30;;;;;;5026376;28;20140;-81
2022/06/08 10:43:24;;;;;;;2.63;1.07;;;17.60;93.40;;;;;;5041132;28;20763;-82
2022/06/08 10:46:01;;;;;;;1.73;1.10;;;17.60;93.40;;;;;;5027157;28;20093;-82
2022/06/08 10:48:41;;;;;;;2.03;1.00;;;17.60;93.50;;;;;;5024477;28;20060;-83
2022/06/08 10:51:10;;;;;;;2.33;1.20;;;17.60;93.60;;;;;;5013620;28;20265;-84
2022/06/08 10:56:28;;;;;;;1.57;1.10;;;17.50;93.50;;;;;;5037072;28;20504;-85
2022/06/08 10:59:08;;;;;;;3.78;1.20;;;17.50;93.80;;;;;;5034314;28;20120;-81
2022/06/08 11:01:52;;;;;;;2.53;1.30;;;17.50;93.90;;;;;;5051103;28;20040;-82
2022/06/08 11:04:29;;;;;;;1.67;1.15;;;17.50;93.70;;;;;;5029765;28;20255;-83
2022/06/08 11:06:57;;;;;;;2.10;1.30;;;17.50;93.90;;;;;;5000340;28;20253;-84
2022/06/08 11:09:35;;;;;;;2.00;1.20;;;17.50;94.00;;;;;;5041130;28;20284;-84
2022/06/08 11:12:11;;;;;;;4.32;1.13;;;17.50;94.10;;;;;;5014404;28;21175;-84
2022/06/08 11:14:42;;;;;;;2.58;1.23;;;17.50;94.10;;;;;;5045587;28;20751;-85
2022/06/08 11:17:29;;;;;;;3.65;1.40;;;17.50;94.40;;;;;;5043709;28;20286;-86
2022/06/08 11:20:30;;;;;;;2.13;1.20;;;17.50;94.40;;;;;;5031373;28;20531;-84
2022/06/08 11:23:10;;;;;;;2.47;1.23;;;17.50;94.30;;;;;;5027589;28;20029;-86
2022/06/08 11:25:48;;;;;;;2.97;1.17;;;17.50;94.40;;;;;;5032314;28;20397;-86
2022/06/08 11:28:35;;;;;;;2.28;1.02;;;17.60;94.50;;;;;;5019945;28;20425;-85
2022/06/08 11:31:04;;;;;;;2.65;1.13;;;17.60;94.50;;;;;;5025413;28;20475;-86
2022/06/08 11:34:08;;;;;;;1.30;1.10;;;17.60;94.60;;;;;;5032413;28;20036;-86
2022/06/08 11:36:49;;;;;;;1.83;1.27;;;17.60;94.50;;;;;;5012806;28;20033;-86
2022/06/08 11:39:21;;;;;;;2.22;1.10;;;17.70;94.60;;;;;;5021973;28;20878;-86
2022/06/08 11:42:14;;;;;;;1.92;1.00;;;17.70;94.50;;;;;;5022894;28;20114;-86
2022/06/08 11:44:59;;;;;;;2.80;1.40;;;17.70;94.50;;;;;;5025700;28;20703;-86
2022/06/08 11:47:57;;;;;;;2.38;1.10;;;17.70;94.60;;;;;;5039199;28;20032;-86
2022/06/08 11:50:29;;;;;;;2.37;1.20;;;17.70;94.60;;;;;;5029733;28;20037;-86
2022/06/08 11:53:06;;;;;;;1.90;1.20;;;17.70;94.70;;;;;;5046433;28;20228;-85
2022/06/08 11:55:50;;;;;;;1.50;1.20;;;17.80;94.60;;;;;;5035468;28;20043;-87
2022/06/08 11:58:22;;;;;;;1.52;1.20;;;17.80;94.80;;;;;;5040581;28;20036;-87
2022/06/08 12:00:48;;;;;;;1.88;1.10;;;17.80;94.80;;;;;;5037474;28;20060;-87
2022/06/08 12:03:33;;;;;;;3.27;1.30;;;17.80;94.90;;;;;;5033568;28;20071;-88
2022/06/08 12:06:08;;;;;;;2.55;1.33;;;17.80;94.90;;;;;;5026484;28;20337;-87
2022/06/08 12:08:36;;;;;;;2.30;1.20;;;17.90;94.90;;;;;;5035738;28;20142;-86
2022/06/08 12:11:03;;;;;;;1.45;1.00;;;17.90;95.00;;;;;;5026133;28;20028;-87
2022/06/08 12:13:31;;;;;;;1.30;1.20;;;17.80;95.10;;;;;;5036198;28;20029;-87
2022/06/08 12:16:20;;;;;;;1.67;1.30;;;17.90;95.30;;;;;;5033583;28;20260;-85
2022/06/08 12:18:54;;;;;;;2.72;1.10;;;17.90;95.30;;;;;;5041705;28;20107;-85
2022/06/08 12:21:29;;;;;;;1.75;1.10;;;18.00;95.50;;;;;;5033975;28;20032;-86
2022/06/08 12:24:04;;;;;;;1.73;1.05;;;18.10;95.50;;;;;;5040153;28;20571;-88
2022/06/08 12:26:47;;;;;;;1.50;1.02;;;18.10;95.50;;;;;;5020066;28;20036;-88
2022/06/08 12:29:32;;;;;;;1.87;1.10;;;18.10;95.30;;;;;;5043565;28;20044;-87
2022/06/08 12:31:59;;;;;;;1.02;0.85;;;18.20;95.20;;;;;;5037476;28;20153;-85
2022/06/08 12:34:37;;;;;;;1.52;0.88;;;18.20;95.30;;;;;;5040983;28;20169;-86
2022/06/08 12:37:45;;;;;;;1.65;0.80;;;18.20;95.40;;;;;;5026484;28;21660;-86
2022/06/08 12:40:17;;;;;;;0.93;0.77;;;18.30;95.30;;;;;;5013312;28;20522;-87
2022/06/08 12:42:49;;;;;;;1.20;0.60;;;18.30;95.50;;;;;;4978259;28;20041;-86
2022/06/08 12:45:39;;;;;;;1.83;0.77;;;18.40;95.20;;;;;;5026283;28;20037;-85
2022/06/08 12:48:20;;;;;;;0.70;0.60;;;18.40;95.00;;;;;;5037350;28;20037;-85
2022/06/08 12:50:45;;;;;;;1.17;0.80;;;18.40;95.00;;;;;;5028843;28;20503;-84
2022/06/08 12:53:11;;;;;;;1.40;0.80;;;18.40;95.20;;;;;;5039527;28;20041;-86
2022/06/08 12:55:40;;;;;;;2.10;0.90;;;18.40;95.30;;;;;;5038995;28;20037;-84
2022/06/08 12:58:06;;;;;;;1.42;0.77;;;18.40;95.20;;;;;;5038022;28;20021;-87
2022/06/08 13:00:35;;;;;;;2.83;1.00;;;18.40;95.20;;;;;;5040153;28;20116;-87
2022/06/08 13:03:14;;;;;;;1.60;0.83;;;18.40;95.50;;;;;;5042408;28;20032;-87
2022/06/08 13:05:40;;;;;;;3.45;1.10;;;18.50;95.80;;;;;;5037008;28;20024;-86
2022/06/08 13:08:06;;;;;;;1.83;0.90;;;18.60;95.80;;;;;;5026081;28;20262;-85
2022/06/08 13:10:33;;;;;;;2.37;1.07;;;18.60;95.80;;;;;;5046199;28;20065;-87
2022/06/08 13:13:03;;;;;;;2.22;1.10;;;18.70;95.80;;;;;;5029198;28;20025;-84
2022/06/08 13:15:39;;;;;;;2.45;0.95;;;18.70;95.60;;;;;;5042832;28;20079;-87
2022/06/08 13:18:06;;;;;;;2.53;0.95;;;18.80;95.40;;;;;;5014266;28;20071;-84
2022/06/08 13:20:37;;;;;;;3.35;1.00;;;18.80;95.60;;;;;;5033532;28;20158;-86
2022/06/08 13:23:03;;;;;;;2.17;1.10;;;18.80;95.30;;;;;;5023462;28;20591;-85
2022/06/08 13:25:32;;;;;;;4.07;1.20;;;18.90;95.00;;;;;;5051317;28;20025;-85
2022/06/08 13:27:58;;;;;;;1.73;1.02;;;18.90;94.90;;;;;;5020832;28;20718;-84
2022/06/08 13:30:28;;;;;;;2.28;1.10;;;18.90;95.00;;;;;;5036992;28;20043;-85